createdAt,value
2023-04-13T00:01:40.801Z,84.89
2023-04-13T00:04:26.822Z,84.63
2023-04-13T00:07:14.914Z,84.80
2023-04-13T00:10:03.370Z,84.37
2023-04-13T00:12:49.210Z,84.59
2023-04-13T00:15:39.244Z,84.36
2023-04-13T00:18:24.186Z,84.30
2023-04-13T00:21:09.700Z,84.66
2023-04-13T00:23:54.914Z,84.41
2023-04-13T00:26:40.233Z,84.70
2023-04-13T00:29:25.539Z,85.42
2023-04-13T00:32:10.915Z,85.09
2023-04-13T00:34:56.305Z,85.06
2023-04-13T00:37:43.128Z,85.11
2023-04-13T00:40:30.279Z,85.38
2023-04-13T00:43:16.237Z,85.50
2023-04-13T00:46:01.848Z,85.04
2023-04-13T00:48:48.424Z,85.12
2023-04-13T00:51:34.353Z,85.27
2023-04-13T00:54:19.548Z,84.95
2023-04-13T00:57:05.573Z,85.29
2023-04-13T00:59:52.851Z,84.96
2023-04-13T01:02:42.672Z,85.54
2023-04-13T01:05:35.423Z,84.97
2023-04-13T01:08:36.157Z,85.37
2023-04-13T01:11:54.189Z,85.49
2023-04-13T01:14:56.126Z,85.83
2023-04-13T01:17:45.066Z,86.23
2023-04-13T01:20:31.918Z,85.84
2023-04-13T01:23:29.732Z,85.97
2023-04-13T01:26:17.272Z,86.87
2023-04-13T01:29:02.756Z,87.14
2023-04-13T01:31:49.383Z,87.76
2023-04-13T01:34:34.970Z,87.59
2023-04-13T01:37:20.929Z,87.26
2023-04-13T01:40:10.009Z,87.96
2023-04-13T01:42:56.128Z,88.02
2023-04-13T01:45:49.687Z,87.60
2023-04-13T01:48:40.475Z,87.97
2023-04-13T01:51:32.264Z,88.68
2023-04-13T01:54:25.754Z,88.51
2023-04-13T01:57:12.798Z,88.23
2023-04-13T01:59:58.797Z,88.88
2023-04-13T02:02:45.341Z,89.26
2023-04-13T02:05:32.182Z,89.89
2023-04-13T02:08:20.749Z,89.76
2023-04-13T02:11:07.795Z,89.82
2023-04-13T02:13:53.583Z,89.47
2023-04-13T02:16:39.083Z,89.49
2023-04-13T02:19:24.896Z,89.80
2023-04-13T02:22:10.182Z,90.32
2023-04-13T02:24:56.698Z,90.34
2023-04-13T02:27:42.228Z,90.34
2023-04-13T02:30:28.126Z,90.71
2023-04-13T02:33:13.509Z,90.73
2023-04-13T02:35:59.425Z,91.01
2023-04-13T02:38:44.918Z,91.04
2023-04-13T02:41:30.215Z,90.62
2023-04-13T02:44:15.884Z,90.96
2023-04-13T02:47:01.474Z,91.20
2023-04-13T02:49:46.984Z,90.45
2023-04-13T02:52:32.024Z,90.33
2023-04-13T02:55:18.062Z,89.89
2023-04-13T02:58:04.773Z,90.27
2023-04-13T03:00:50.584Z,89.93
2023-04-13T03:03:35.830Z,90.38
2023-04-13T03:06:24.190Z,90.46
2023-04-13T03:09:10.080Z,90.28
2023-04-13T03:11:56.577Z,90.08
2023-04-13T03:14:41.661Z,90.50
2023-04-13T03:17:28.324Z,90.44
2023-04-13T03:20:15.442Z,90.22
2023-04-13T03:23:01.953Z,89.97
2023-04-13T03:25:47.260Z,90.16
2023-04-13T03:28:32.588Z,89.29
2023-04-13T03:31:18.136Z,89.58
2023-04-13T03:34:03.282Z,89.99
2023-04-13T03:36:49.102Z,89.78
2023-04-13T03:39:34.425Z,89.77
2023-04-13T03:42:19.601Z,89.32
2023-04-13T03:45:06.650Z,89.11
2023-04-13T03:47:52.454Z,89.65
2023-04-13T03:50:37.632Z,89.87
2023-04-13T03:53:23.120Z,89.74
2023-04-13T03:56:08.738Z,89.44
2023-04-13T03:58:56.989Z,89.61
2023-04-13T04:01:42.097Z,89.97
2023-04-13T04:04:27.649Z,89.85
2023-04-13T04:07:13.407Z,89.60
2023-04-13T04:09:58.708Z,89.17
2023-04-13T04:12:44.124Z,89.24
2023-04-13T04:15:29.370Z,89.52
2023-04-13T04:18:14.702Z,89.46
2023-04-13T04:21:02.950Z,89.51
2023-04-13T04:23:48.511Z,90.34
2023-04-13T04:26:33.491Z,89.72
2023-04-13T04:29:36.860Z,90.13
2023-04-13T04:32:24.099Z,90.96
2023-04-13T04:35:12.160Z,90.37
2023-04-13T04:37:58.081Z,90.60
2023-04-13T04:40:45.217Z,90.69
2023-04-13T04:43:30.506Z,90.74
2023-04-13T04:46:17.039Z,91.24
2023-04-13T04:49:02.997Z,91.39
2023-04-13T04:51:49.054Z,91.51
2023-04-13T04:54:34.355Z,91.99
2023-04-13T04:57:20.684Z,91.90
2023-04-13T05:00:18.280Z,92.69
2023-04-13T05:03:03.350Z,93.51
2023-04-13T05:05:48.678Z,94.16
2023-04-13T05:08:34.616Z,96.08
2023-04-13T05:11:20.667Z,96.21
2023-04-13T05:14:05.720Z,96.36
2023-04-13T05:16:51.515Z,96.75
2023-04-13T05:19:38.659Z,96.73
2023-04-13T05:22:24.636Z,96.21
2023-04-13T05:25:10.535Z,96.23
2023-04-13T05:27:56.307Z,95.38
2023-04-13T05:30:41.546Z,95.05
2023-04-13T05:33:26.836Z,95.00
2023-04-13T05:36:11.911Z,94.57
2023-04-13T05:38:58.102Z,94.72
2023-04-13T05:41:43.422Z,94.68
2023-04-13T05:44:28.661Z,95.39
2023-04-13T05:47:13.550Z,95.14
2023-04-13T05:49:58.776Z,96.54
2023-04-13T05:52:44.139Z,97.50
2023-04-13T05:55:29.906Z,98.31
2023-04-13T05:58:15.630Z,98.71
2023-04-13T06:01:01.744Z,98.39
2023-04-13T06:03:47.671Z,98.86
2023-04-13T06:06:33.425Z,98.91
2023-04-13T06:09:19.205Z,98.73
2023-04-13T06:12:04.419Z,97.99
2023-04-13T06:14:49.868Z,97.98
2023-04-13T06:17:35.824Z,99.85
2023-04-13T06:20:21.708Z,100.00
2023-04-13T06:23:07.589Z,100.00
2023-04-13T06:25:52.808Z,100.00
2023-04-13T06:28:38.025Z,100.00
2023-04-13T06:31:27.454Z,100.00
2023-04-13T06:34:13.800Z,100.00
2023-04-13T06:36:59.433Z,100.00
2023-04-13T06:39:44.347Z,100.00
2023-04-13T06:42:29.674Z,100.00
2023-04-13T06:45:14.997Z,100.00
2023-04-13T06:48:03.279Z,100.00
2023-04-13T06:50:48.719Z,100.00
2023-04-13T06:53:34.149Z,100.00
2023-04-13T06:56:19.396Z,100.00
2023-04-13T06:59:05.122Z,100.00
2023-04-13T07:01:51.233Z,100.00
2023-04-13T07:04:37.666Z,100.00
2023-04-13T07:07:23.309Z,100.00
2023-04-13T07:10:09.304Z,100.00
2023-04-13T07:12:54.698Z,100.00
2023-04-13T07:15:39.862Z,100.00
2023-04-13T07:18:25.450Z,100.00
2023-04-13T07:21:11.028Z,100.00
2023-04-13T07:23:56.224Z,100.00
2023-04-13T07:26:41.865Z,100.00
2023-04-13T07:29:27.154Z,100.00
2023-04-13T07:32:12.486Z,100.00
2023-04-13T07:35:01.960Z,100.00
2023-04-13T07:37:51.451Z,100.00
2023-04-13T07:40:37.593Z,100.00
2023-04-13T07:43:26.354Z,100.00
2023-04-13T07:46:12.766Z,100.00
2023-04-13T07:48:57.886Z,100.00
2023-04-13T07:51:43.062Z,100.00
2023-04-13T07:54:28.259Z,100.00
2023-04-13T07:57:13.611Z,100.00
2023-04-13T07:59:58.916Z,99.05
2023-04-13T08:02:44.461Z,99.13
2023-04-13T08:05:29.621Z,98.99
2023-04-13T08:08:15.065Z,99.06
2023-04-13T08:11:01.403Z,99.84
2023-04-13T08:13:46.496Z,97.73
2023-04-13T08:16:34.452Z,97.62
2023-04-13T08:19:19.774Z,97.99
2023-04-13T08:22:05.266Z,97.75
2023-04-13T08:24:50.362Z,95.70
2023-04-13T08:27:35.858Z,94.64
2023-04-13T08:30:21.248Z,92.28
2023-04-13T08:33:06.352Z,91.00
2023-04-13T08:35:52.016Z,89.66
2023-04-13T08:38:37.145Z,88.62
2023-04-13T08:41:23.135Z,87.96
2023-04-13T08:44:08.705Z,88.33
2023-04-13T08:46:54.301Z,87.88
2023-04-13T08:49:40.701Z,87.47
2023-04-13T08:52:27.573Z,86.90
2023-04-13T08:55:15.682Z,85.53
2023-04-13T08:58:03.839Z,84.89
2023-04-13T09:00:50.291Z,85.59
2023-04-13T09:03:43.951Z,86.37
2023-04-13T09:06:36.078Z,86.07
2023-04-13T09:09:21.572Z,85.61
2023-04-13T09:12:06.713Z,86.14
2023-04-13T09:14:52.545Z,84.82
2023-04-13T09:17:38.320Z,84.40
2023-04-13T09:20:23.890Z,83.83
2023-04-13T09:23:14.854Z,83.64
2023-04-13T09:26:06.499Z,83.08
2023-04-13T09:28:56.107Z,82.34
2023-04-13T09:31:43.682Z,82.17
2023-04-13T09:34:30.451Z,82.78
2023-04-13T09:37:15.974Z,82.44
2023-04-13T09:40:15.216Z,81.20
2023-04-13T09:43:02.227Z,81.70
2023-04-13T09:45:48.359Z,80.66
2023-04-13T09:48:33.419Z,80.68
2023-04-13T09:51:19.004Z,80.42
2023-04-13T09:54:05.878Z,79.53
2023-04-13T09:56:52.909Z,78.17
2023-04-13T09:59:38.509Z,77.57
2023-04-13T10:02:24.352Z,75.93
2023-04-13T10:05:10.322Z,75.90
2023-04-13T10:07:56.436Z,77.07
2023-04-13T10:10:41.840Z,77.08
2023-04-13T10:13:37.877Z,75.87
2023-04-13T10:16:26.277Z,74.98
2023-04-13T10:19:16.028Z,74.64
2023-04-13T10:22:04.012Z,73.67
2023-04-13T10:24:51.253Z,72.12
2023-04-13T10:27:36.619Z,73.19
2023-04-13T10:30:22.838Z,73.31
2023-04-13T10:33:10.786Z,72.66
2023-04-13T10:36:00.124Z,71.90
2023-04-13T10:38:46.905Z,72.04
2023-04-13T10:41:32.475Z,71.50
2023-04-13T10:44:17.812Z,72.20
2023-04-13T10:47:06.171Z,70.99
2023-04-13T10:49:52.937Z,69.43
2023-04-13T10:52:38.057Z,70.18
2023-04-13T10:55:25.479Z,70.50
2023-04-13T10:58:17.206Z,70.28
2023-04-13T11:01:03.880Z,68.69
2023-04-13T11:04:03.704Z,69.38
2023-04-13T11:06:51.353Z,69.71
2023-04-13T11:09:36.851Z,69.04
2023-04-13T11:12:21.819Z,69.41
2023-04-13T11:15:08.701Z,69.58
2023-04-13T11:18:02.221Z,71.19
2023-04-13T11:20:47.450Z,70.18
2023-04-13T11:23:34.626Z,69.58
2023-04-13T11:26:34.809Z,69.81
2023-04-13T11:29:23.347Z,67.07
2023-04-13T11:32:19.078Z,65.56
2023-04-13T11:35:13.857Z,67.26
2023-04-13T11:37:59.664Z,67.02
2023-04-13T11:40:45.558Z,66.66
2023-04-13T11:43:31.049Z,66.39
2023-04-13T11:46:25.267Z,65.66
2023-04-13T11:49:11.419Z,63.67
2023-04-13T11:51:56.754Z,63.14
2023-04-13T11:54:44.723Z,62.65
2023-04-13T11:57:29.861Z,61.90
2023-04-13T12:00:24.568Z,61.62
2023-04-13T12:06:08.198Z,60.48
2023-04-13T12:09:09.003Z,61.06
2023-04-13T12:12:20.432Z,61.25
2023-04-13T12:18:02.644Z,61.85
2023-04-13T12:20:54.784Z,59.81
2023-04-13T12:23:39.977Z,58.83
2023-04-13T12:27:17.130Z,60.18
2023-04-13T12:29:46.474Z,60.21
2023-04-13T12:32:32.087Z,59.20
2023-04-13T12:35:19.433Z,59.44
2023-04-13T12:38:05.191Z,58.91
2023-04-13T12:40:58.351Z,58.15
2023-04-13T12:43:43.368Z,57.88
2023-04-13T12:46:29.103Z,57.78
2023-04-13T12:49:14.525Z,56.41
2023-04-13T12:51:59.776Z,54.76
2023-04-13T12:54:45.036Z,55.71
2023-04-13T12:57:30.383Z,57.28
2023-04-13T13:00:17.431Z,57.85
2023-04-13T13:03:13.688Z,56.82
2023-04-13T13:06:00.349Z,56.10
2023-04-13T13:08:46.036Z,56.83
2023-04-13T13:11:31.574Z,56.85
2023-04-13T13:14:16.664Z,56.97
2023-04-13T13:17:03.778Z,56.81
2023-04-13T13:19:48.950Z,57.07
2023-04-13T13:22:34.800Z,56.81
2023-04-13T13:25:20.416Z,55.50
2023-04-13T13:28:13.805Z,56.58
2023-04-13T13:31:00.625Z,56.21
2023-04-13T13:33:45.998Z,56.67
2023-04-13T13:36:31.252Z,56.94
2023-04-13T13:39:18.398Z,56.24
2023-04-13T13:42:03.597Z,55.43
2023-04-13T13:44:49.425Z,55.16
2023-04-13T13:47:35.519Z,55.62
2023-04-13T13:50:21.899Z,54.57
2023-04-13T13:53:08.856Z,54.98
2023-04-13T13:55:54.386Z,54.73
2023-04-13T13:58:39.543Z,54.95
2023-04-13T14:01:25.224Z,54.72
2023-04-13T14:04:11.628Z,55.20
2023-04-13T14:06:57.240Z,54.32
2023-04-13T14:09:42.231Z,54.36
2023-04-13T14:12:27.677Z,54.15
2023-04-13T14:15:13.693Z,54.48
2023-04-13T14:18:09.844Z,54.04
2023-04-13T14:20:59.674Z,54.09
2023-04-13T14:23:45.248Z,54.05
2023-04-13T14:26:30.745Z,54.06
2023-04-13T14:29:15.888Z,54.16
2023-04-13T14:32:01.173Z,53.69
2023-04-13T14:34:47.753Z,54.00
2023-04-13T14:37:32.774Z,53.98
2023-04-13T14:40:21.760Z,54.41
2023-04-13T14:43:07.775Z,54.94
2023-04-13T14:45:55.116Z,54.93
2023-04-13T14:48:40.455Z,54.56
2023-04-13T14:51:25.950Z,54.52
2023-04-13T14:54:11.012Z,54.97
2023-04-13T14:56:56.351Z,54.88
2023-04-13T14:59:41.400Z,55.06
2023-04-13T15:02:28.124Z,54.87
2023-04-13T15:05:13.860Z,55.02
2023-04-13T15:07:59.225Z,54.54
2023-04-13T15:10:44.405Z,54.73
2023-04-13T15:13:29.351Z,55.12
2023-04-13T15:16:14.686Z,55.17
2023-04-13T15:19:00.227Z,55.29
2023-04-13T15:21:45.512Z,55.21
2023-04-13T15:24:31.334Z,55.13
2023-04-13T15:27:16.247Z,55.47
2023-04-13T15:30:03.302Z,55.89
2023-04-13T15:32:48.845Z,56.18
2023-04-13T15:35:35.502Z,55.04
2023-04-13T15:38:20.930Z,55.28
2023-04-13T15:41:09.889Z,55.06
2023-04-13T15:43:56.311Z,55.31
2023-04-13T15:46:41.609Z,55.79
2023-04-13T15:49:26.853Z,56.38
2023-04-13T15:52:11.983Z,56.61
2023-04-13T15:54:57.381Z,56.26
2023-04-13T15:57:42.330Z,56.96
2023-04-13T16:00:28.050Z,56.90
2023-04-13T16:03:13.560Z,56.74
2023-04-13T16:05:58.876Z,57.31
2023-04-13T16:08:43.949Z,57.69
2023-04-13T16:11:31.708Z,57.47
2023-04-13T16:14:17.506Z,57.09
2023-04-13T16:17:02.710Z,57.30
2023-04-13T16:19:50.653Z,58.02
2023-04-13T16:22:37.488Z,57.78
2023-04-13T16:25:22.771Z,57.65
2023-04-13T16:28:08.102Z,56.94
2023-04-13T16:30:53.846Z,57.59
2023-04-13T16:33:39.248Z,57.74
2023-04-13T16:36:25.023Z,58.19
2023-04-13T16:39:12.020Z,57.68
2023-04-13T16:41:58.216Z,58.21
2023-04-13T16:44:43.949Z,58.72
2023-04-13T16:47:30.187Z,58.52
2023-04-13T16:50:15.602Z,58.17
2023-04-13T16:53:00.864Z,58.36
2023-04-13T16:55:50.497Z,59.22
2023-04-13T16:58:35.968Z,59.22
2023-04-13T17:01:21.381Z,59.68
2023-04-13T17:04:06.680Z,59.74
2023-04-13T17:06:52.162Z,59.74
2023-04-13T17:09:37.541Z,60.34
2023-04-13T17:12:23.043Z,60.53
2023-04-13T17:15:09.639Z,60.73
2023-04-13T17:17:55.111Z,61.38
2023-04-13T17:20:40.814Z,61.52
2023-04-13T17:23:26.120Z,62.23
2023-04-13T17:26:11.089Z,62.63
2023-04-13T17:28:56.376Z,63.04
2023-04-13T17:31:41.640Z,63.47
2023-04-13T17:34:27.120Z,63.55
2023-04-13T17:37:12.192Z,63.82
2023-04-13T17:39:57.789Z,63.70
2023-04-13T17:42:42.993Z,64.46
2023-04-13T17:45:28.586Z,64.12
2023-04-13T17:48:14.007Z,64.31
2023-04-13T17:50:58.877Z,64.88
2023-04-13T17:53:44.218Z,64.91
2023-04-13T17:56:29.431Z,65.35
2023-04-13T17:59:16.008Z,65.38
2023-04-13T18:02:01.352Z,65.84
2023-04-13T18:04:47.934Z,66.37
2023-04-13T18:07:33.353Z,66.57
2023-04-13T18:10:18.848Z,66.97
2023-04-13T18:13:04.124Z,67.79
2023-04-13T18:15:50.341Z,67.97
2023-04-13T18:18:35.652Z,68.28
2023-04-13T18:21:20.824Z,68.62
2023-04-13T18:24:06.533Z,68.91
2023-04-13T18:26:52.172Z,69.09
2023-04-13T18:29:37.932Z,69.21
2023-04-13T18:32:23.582Z,69.62
2023-04-13T18:35:10.161Z,69.91
2023-04-13T18:37:55.786Z,70.14
2023-04-13T18:40:41.744Z,70.43
2023-04-13T18:43:27.076Z,70.65
2023-04-13T18:46:12.538Z,70.97
2023-04-13T18:48:57.894Z,71.02
2023-04-13T18:51:43.883Z,71.42
2023-04-13T18:54:29.485Z,71.76
2023-04-13T18:57:14.620Z,72.02
2023-04-13T18:59:59.839Z,72.52
2023-04-13T19:02:47.687Z,72.71
2023-04-13T19:05:35.515Z,72.98
2023-04-13T19:08:20.728Z,73.28
2023-04-13T19:11:05.916Z,73.91
2023-04-13T19:13:51.336Z,74.60
2023-04-13T19:16:37.960Z,74.80
2023-04-13T19:19:24.142Z,74.51
2023-04-13T19:22:09.258Z,75.02
2023-04-13T19:24:54.566Z,75.20
2023-04-13T19:27:44.587Z,75.62
2023-04-13T19:30:29.780Z,75.88
2023-04-13T19:33:15.115Z,76.20
2023-04-13T19:36:00.312Z,75.94
2023-04-13T19:38:45.638Z,76.57
2023-04-13T19:41:35.662Z,76.93
2023-04-13T19:44:20.712Z,77.28
2023-04-13T19:47:05.989Z,77.29
2023-04-13T19:49:51.217Z,77.45
2023-04-13T19:52:36.473Z,77.83
2023-04-13T19:55:21.906Z,77.91
2023-04-13T19:58:08.040Z,78.03
2023-04-13T20:00:54.380Z,78.73
2023-04-13T20:03:40.410Z,78.80
2023-04-13T20:06:27.266Z,78.45
2023-04-13T20:09:14.310Z,78.72
2023-04-13T20:11:59.306Z,79.72
2023-04-13T20:14:46.308Z,80.24
2023-04-13T20:17:31.377Z,80.12
2023-04-13T20:20:17.925Z,80.20
2023-04-13T20:23:03.292Z,80.66
2023-04-13T20:25:48.721Z,80.61
2023-04-13T20:28:33.962Z,80.43
2023-04-13T20:31:19.201Z,81.10
2023-04-13T20:34:04.638Z,81.18
2023-04-13T20:36:50.321Z,81.46
2023-04-13T20:39:36.793Z,81.42
2023-04-13T20:42:22.504Z,81.37
2023-04-13T20:45:14.135Z,81.63
2023-04-13T20:51:09.658Z,81.78
2023-04-13T20:53:55.484Z,82.06
2023-04-13T20:56:40.645Z,82.11
2023-04-13T20:59:26.069Z,81.18
2023-04-13T21:02:11.869Z,81.87
2023-04-13T21:04:57.329Z,82.18
2023-04-13T21:07:42.924Z,81.80
2023-04-13T21:10:28.286Z,81.81
2023-04-13T21:13:16.149Z,81.97
2023-04-13T21:16:01.575Z,82.01
2023-04-13T21:18:46.924Z,82.45
2023-04-13T21:21:32.814Z,82.41
2023-04-13T21:24:17.773Z,82.04
2023-04-13T21:27:03.161Z,82.25
2023-04-13T21:29:48.447Z,82.34
2023-04-13T21:32:33.670Z,82.88
2023-04-13T21:35:19.526Z,82.74
2023-04-13T21:38:05.947Z,83.19
2023-04-13T21:40:51.434Z,82.75
2023-04-13T21:43:36.529Z,83.13
2023-04-13T21:46:21.951Z,83.29
2023-04-13T21:49:07.489Z,84.30
2023-04-13T21:51:52.708Z,84.50
2023-04-13T21:54:38.101Z,83.74
2023-04-13T21:57:23.292Z,84.32
2023-04-13T22:00:09.383Z,84.41
2023-04-13T22:02:55.497Z,84.13
2023-04-13T22:05:41.008Z,84.06
2023-04-13T22:08:26.329Z,84.18
2023-04-13T22:11:11.925Z,84.11
2023-04-13T22:13:56.991Z,84.27
2023-04-13T22:16:42.480Z,83.93
2023-04-13T22:19:27.741Z,83.70
2023-04-13T22:22:13.111Z,84.10
2023-04-13T22:24:58.197Z,83.65
2023-04-13T22:27:43.964Z,83.79
2023-04-13T22:30:29.686Z,83.99
2023-04-13T22:33:15.317Z,84.37
2023-04-13T22:36:00.452Z,84.21
2023-04-13T22:38:49.810Z,84.51
2023-04-13T22:41:35.193Z,84.47
2023-04-13T22:44:20.599Z,85.16
2023-04-13T22:47:06.044Z,86.17
2023-04-13T22:49:51.554Z,85.76
2023-04-13T22:52:36.750Z,85.83
2023-04-13T22:55:22.073Z,85.41
2023-04-13T22:58:07.485Z,86.08
2023-04-13T23:00:52.778Z,86.11
2023-04-13T23:03:38.184Z,85.80
2023-04-13T23:06:23.479Z,85.76
2023-04-13T23:09:09.037Z,85.01
2023-04-13T23:11:54.361Z,85.17
2023-04-13T23:14:40.444Z,86.13
2023-04-13T23:17:25.505Z,85.23
2023-04-13T23:20:11.283Z,84.96
2023-04-13T23:22:56.594Z,84.47
2023-04-13T23:25:41.864Z,84.64
2023-04-13T23:28:27.091Z,84.34
2023-04-13T23:31:12.454Z,85.04
2023-04-13T23:33:57.710Z,84.26
2023-04-13T23:36:43.109Z,84.33
2023-04-13T23:39:28.344Z,84.49
2023-04-13T23:42:13.771Z,84.64
2023-04-13T23:44:59.048Z,84.46
2023-04-13T23:47:44.326Z,84.93
2023-04-13T23:50:29.568Z,84.67
2023-04-13T23:53:14.793Z,84.61
2023-04-13T23:56:00.268Z,84.69
2023-04-13T23:58:45.540Z,85.07
